sensor_id;sensor_type;location;lat;lon;timestamp;P1;durP1;ratioP1;P2;durP2;ratioP2
12719;SDS011;6424;48.520;11.228;2023-02-15T00:00:09;30.80;;;15.27;;
12719;SDS011;6424;48.520;11.228;2023-02-15T00:02:51;31.63;;;14.83;;
12719;SDS011;6424;48.520;11.228;2023-02-15T00:05:31;22.70;;;14.23;;
12719;SDS011;6424;48.520;11.228;2023-02-15T00:08:12;23.43;;;14.43;;
12719;SDS011;6424;48.520;11.228;2023-02-15T00:10:53;31.27;;;15.33;;
12719;SDS011;6424;48.520;11.228;2023-02-15T00:13:42;57.50;;;17.27;;
12719;SDS011;6424;48.520;11.228;2023-02-15T00:16:23;32.33;;;14.83;;
12719;SDS011;6424;48.520;11.228;2023-02-15T00:19:04;63.50;;;15.80;;
12719;SDS011;6424;48.520;11.228;2023-02-15T00:21:45;32.53;;;13.60;;
12719;SDS011;6424;48.520;11.228;2023-02-15T00:24:27;24.57;;;13.07;;
12719;SDS011;6424;48.520;11.228;2023-02-15T00:27:07;70.93;;;16.63;;
12719;SDS011;6424;48.520;11.228;2023-02-15T00:29:49;59.20;;;16.33;;
12719;SDS011;6424;48.520;11.228;2023-02-15T00:32:29;37.70;;;15.50;;
12719;SDS011;6424;48.520;11.228;2023-02-15T00:35:11;24.07;;;14.40;;
12719;SDS011;6424;48.520;11.228;2023-02-15T00:37:52;36.20;;;15.77;;
12719;SDS011;6424;48.520;11.228;2023-02-15T00:40:33;22.63;;;14.80;;
12719;SDS011;6424;48.520;11.228;2023-02-15T00:43:13;23.33;;;15.67;;
12719;SDS011;6424;48.520;11.228;2023-02-15T00:45:54;25.13;;;15.33;;
12719;SDS011;6424;48.520;11.228;2023-02-15T00:48:35;28.87;;;15.00;;
12719;SDS011;6424;48.520;11.228;2023-02-15T00:51:16;24.00;;;15.93;;
12719;SDS011;6424;48.520;11.228;2023-02-15T00:53:42;23.00;;;14.93;;
12719;SDS011;6424;48.520;11.228;2023-02-15T00:56:24;26.77;;;13.90;;
12719;SDS011;6424;48.520;11.228;2023-02-15T00:59:05;31.80;;;14.33;;
12719;SDS011;6424;48.520;11.228;2023-02-15T01:01:31;25.00;;;14.53;;
12719;SDS011;6424;48.520;11.228;2023-02-15T01:04:11;20.73;;;13.10;;
12719;SDS011;6424;48.520;11.228;2023-02-15T01:06:52;25.37;;;14.90;;
12719;SDS011;6424;48.520;11.228;2023-02-15T01:09:33;73.30;;;17.10;;
12719;SDS011;6424;48.520;11.228;2023-02-15T01:12:14;40.47;;;16.70;;
12719;SDS011;6424;48.520;11.228;2023-02-15T01:14:55;21.27;;;14.00;;
12719;SDS011;6424;48.520;11.228;2023-02-15T01:17:35;20.00;;;14.83;;
12719;SDS011;6424;48.520;11.228;2023-02-15T01:20:17;51.43;;;17.50;;
12719;SDS011;6424;48.520;11.228;2023-02-15T01:23:02;38.93;;;16.00;;
12719;SDS011;6424;48.520;11.228;2023-02-15T01:25:43;37.90;;;16.83;;
12719;SDS011;6424;48.520;11.228;2023-02-15T01:28:24;33.63;;;17.20;;
12719;SDS011;6424;48.520;11.228;2023-02-15T01:31:05;23.07;;;15.13;;
12719;SDS011;6424;48.520;11.228;2023-02-15T01:33:47;42.17;;;15.83;;
12719;SDS011;6424;48.520;11.228;2023-02-15T01:36:28;25.07;;;14.33;;
12719;SDS011;6424;48.520;11.228;2023-02-15T01:39:10;22.23;;;15.63;;
12719;SDS011;6424;48.520;11.228;2023-02-15T01:41:36;34.90;;;16.87;;
12719;SDS011;6424;48.520;11.228;2023-02-15T01:44:02;32.07;;;14.93;;
12719;SDS011;6424;48.520;11.228;2023-02-15T01:46:45;29.93;;;14.87;;
12719;SDS011;6424;48.520;11.228;2023-02-15T01:49:32;25.77;;;14.90;;
12719;SDS011;6424;48.520;11.228;2023-02-15T01:52:14;33.53;;;15.60;;
12719;SDS011;6424;48.520;11.228;2023-02-15T01:54:57;26.90;;;15.97;;
12719;SDS011;6424;48.520;11.228;2023-02-15T01:57:38;52.30;;;17.13;;
12719;SDS011;6424;48.520;11.228;2023-02-15T02:00:19;49.53;;;16.70;;
12719;SDS011;6424;48.520;11.228;2023-02-15T02:02:47;25.43;;;15.77;;
12719;SDS011;6424;48.520;11.228;2023-02-15T02:05:32;52.73;;;17.57;;
12719;SDS011;6424;48.520;11.228;2023-02-15T02:08:13;24.00;;;15.53;;
12719;SDS011;6424;48.520;11.228;2023-02-15T02:10:54;20.50;;;14.67;;
12719;SDS011;6424;48.520;11.228;2023-02-15T02:13:34;33.37;;;15.77;;
12719;SDS011;6424;48.520;11.228;2023-02-15T02:19:08;38.80;;;16.43;;
12719;SDS011;6424;48.520;11.228;2023-02-15T02:31:28;26.30;;;14.47;;
12719;SDS011;6424;48.520;11.228;2023-02-15T02:34:14;35.30;;;16.67;;
12719;SDS011;6424;48.520;11.228;2023-02-15T02:40:07;32.20;;;16.20;;
12719;SDS011;6424;48.520;11.228;2023-02-15T02:42:56;31.57;;;15.47;;
12719;SDS011;6424;48.520;11.228;2023-02-15T02:46:44;53.00;;;16.60;;
12719;SDS011;6424;48.520;11.228;2023-02-15T02:48:58;30.87;;;15.30;;
12719;SDS011;6424;48.520;11.228;2023-02-15T02:51:39;25.73;;;15.70;;
12719;SDS011;6424;48.520;11.228;2023-02-15T02:54:19;18.43;;;14.17;;
12719;SDS011;6424;48.520;11.228;2023-02-15T02:57:01;39.67;;;16.17;;
12719;SDS011;6424;48.520;11.228;2023-02-15T02:59:46;50.53;;;17.93;;
12719;SDS011;6424;48.520;11.228;2023-02-15T03:02:31;31.97;;;15.50;;
12719;SDS011;6424;48.520;11.228;2023-02-15T03:05:16;40.00;;;16.80;;
12719;SDS011;6424;48.520;11.228;2023-02-15T03:08:02;48.20;;;17.33;;
12719;SDS011;6424;48.520;11.228;2023-02-15T03:10:46;30.43;;;16.43;;
12719;SDS011;6424;48.520;11.228;2023-02-15T03:13:27;26.40;;;15.23;;
12719;SDS011;6424;48.520;11.228;2023-02-15T03:16:08;44.63;;;16.63;;
12719;SDS011;6424;48.520;11.228;2023-02-15T03:19:08;34.57;;;15.70;;
12719;SDS011;6424;48.520;11.228;2023-02-15T03:21:47;22.87;;;13.43;;
12719;SDS011;6424;48.520;11.228;2023-02-15T03:24:48;61.47;;;17.23;;
12719;SDS011;6424;48.520;11.228;2023-02-15T03:28:08;55.03;;;14.70;;
12719;SDS011;6424;48.520;11.228;2023-02-15T03:30:59;42.87;;;14.33;;
12719;SDS011;6424;48.520;11.228;2023-02-15T03:33:44;24.00;;;14.33;;
12719;SDS011;6424;48.520;11.228;2023-02-15T03:36:43;44.70;;;16.30;;
12719;SDS011;6424;48.520;11.228;2023-02-15T03:39:38;39.33;;;16.53;;
12719;SDS011;6424;48.520;11.228;2023-02-15T03:42:28;24.83;;;14.97;;
12719;SDS011;6424;48.520;11.228;2023-02-15T03:47:39;47.17;;;16.83;;
12719;SDS011;6424;48.520;11.228;2023-02-15T03:50:17;33.53;;;18.73;;
12719;SDS011;6424;48.520;11.228;2023-02-15T03:53:23;22.57;;;16.00;;
12719;SDS011;6424;48.520;11.228;2023-02-15T03:56:05;35.80;;;16.90;;
12719;SDS011;6424;48.520;11.228;2023-02-15T03:58:46;33.87;;;17.83;;
12719;SDS011;6424;48.520;11.228;2023-02-15T04:04:39;35.37;;;16.60;;
12719;SDS011;6424;48.520;11.228;2023-02-15T04:07:25;30.07;;;16.37;;
12719;SDS011;6424;48.520;11.228;2023-02-15T04:10:06;42.03;;;17.17;;
12719;SDS011;6424;48.520;11.228;2023-02-15T04:13:05;32.40;;;17.37;;
12719;SDS011;6424;48.520;11.228;2023-02-15T04:15:46;27.77;;;17.63;;
12719;SDS011;6424;48.520;11.228;2023-02-15T04:18:45;28.83;;;16.23;;
12719;SDS011;6424;48.520;11.228;2023-02-15T04:21:44;32.87;;;16.43;;
12719;SDS011;6424;48.520;11.228;2023-02-15T04:24:43;33.43;;;15.93;;
12719;SDS011;6424;48.520;11.228;2023-02-15T04:27:53;44.33;;;19.07;;
12719;SDS011;6424;48.520;11.228;2023-02-15T04:30:34;33.40;;;17.43;;
12719;SDS011;6424;48.520;11.228;2023-02-15T04:33:15;23.43;;;14.63;;
12719;SDS011;6424;48.520;11.228;2023-02-15T04:35:56;37.00;;;17.67;;
12719;SDS011;6424;48.520;11.228;2023-02-15T04:38:36;51.50;;;17.43;;
12719;SDS011;6424;48.520;11.228;2023-02-15T04:41:17;29.63;;;17.03;;
12719;SDS011;6424;48.520;11.228;2023-02-15T04:43:58;48.10;;;17.83;;
12719;SDS011;6424;48.520;11.228;2023-02-15T04:46:40;24.80;;;16.07;;
12719;SDS011;6424;48.520;11.228;2023-02-15T04:49:21;27.90;;;16.53;;
12719;SDS011;6424;48.520;11.228;2023-02-15T04:52:02;34.00;;;18.03;;
12719;SDS011;6424;48.520;11.228;2023-02-15T04:54:43;22.63;;;16.97;;
12719;SDS011;6424;48.520;11.228;2023-02-15T04:57:24;38.33;;;17.50;;
12719;SDS011;6424;48.520;11.228;2023-02-15T05:00:05;27.43;;;16.47;;
12719;SDS011;6424;48.520;11.228;2023-02-15T05:02:46;21.90;;;15.20;;
12719;SDS011;6424;48.520;11.228;2023-02-15T05:05:27;48.03;;;18.27;;
12719;SDS011;6424;48.520;11.228;2023-02-15T05:07:53;50.77;;;18.23;;
12719;SDS011;6424;48.520;11.228;2023-02-15T05:10:33;50.03;;;17.53;;
12719;SDS011;6424;48.520;11.228;2023-02-15T05:13:15;47.23;;;18.27;;
12719;SDS011;6424;48.520;11.228;2023-02-15T05:15:56;55.50;;;18.00;;
12719;SDS011;6424;48.520;11.228;2023-02-15T05:18:36;114.43;;;21.27;;
12719;SDS011;6424;48.520;11.228;2023-02-15T05:21:17;82.87;;;19.03;;
12719;SDS011;6424;48.520;11.228;2023-02-15T05:23:58;42.47;;;17.70;;
12719;SDS011;6424;48.520;11.228;2023-02-15T05:26:39;78.80;;;20.80;;
12719;SDS011;6424;48.520;11.228;2023-02-15T05:29:38;24.27;;;16.80;;
12719;SDS011;6424;48.520;11.228;2023-02-15T05:32:19;62.77;;;20.17;;
12719;SDS011;6424;48.520;11.228;2023-02-15T05:34:44;49.90;;;21.73;;
12719;SDS011;6424;48.520;11.228;2023-02-15T05:37:25;42.10;;;19.43;;
12719;SDS011;6424;48.520;11.228;2023-02-15T05:40:06;43.73;;;17.63;;
12719;SDS011;6424;48.520;11.228;2023-02-15T05:42:47;26.10;;;17.33;;
12719;SDS011;6424;48.520;11.228;2023-02-15T05:45:28;36.93;;;18.43;;
12719;SDS011;6424;48.520;11.228;2023-02-15T05:48:09;23.17;;;16.53;;
12719;SDS011;6424;48.520;11.228;2023-02-15T05:51:23;40.77;;;17.03;;
12719;SDS011;6424;48.520;11.228;2023-02-15T05:53:57;31.40;;;17.37;;
12719;SDS011;6424;48.520;11.228;2023-02-15T05:56:38;34.03;;;16.03;;
12719;SDS011;6424;48.520;11.228;2023-02-15T05:59:18;23.90;;;17.37;;
12719;SDS011;6424;48.520;11.228;2023-02-15T06:01:59;47.93;;;19.20;;
12719;SDS011;6424;48.520;11.228;2023-02-15T06:04:40;23.57;;;16.93;;
12719;SDS011;6424;48.520;11.228;2023-02-15T06:07:21;26.50;;;17.00;;
12719;SDS011;6424;48.520;11.228;2023-02-15T06:10:02;30.03;;;17.20;;
12719;SDS011;6424;48.520;11.228;2023-02-15T06:12:43;44.47;;;18.73;;
12719;SDS011;6424;48.520;11.228;2023-02-15T06:15:25;27.30;;;15.77;;
12719;SDS011;6424;48.520;11.228;2023-02-15T06:18:05;35.83;;;18.87;;
12719;SDS011;6424;48.520;11.228;2023-02-15T06:20:46;24.90;;;16.30;;
12719;SDS011;6424;48.520;11.228;2023-02-15T06:23:12;27.37;;;16.87;;
12719;SDS011;6424;48.520;11.228;2023-02-15T06:25:38;26.37;;;16.17;;
12719;SDS011;6424;48.520;11.228;2023-02-15T06:28:19;43.00;;;17.90;;
12719;SDS011;6424;48.520;11.228;2023-02-15T06:31:00;24.97;;;15.90;;
12719;SDS011;6424;48.520;11.228;2023-02-15T06:33:41;22.57;;;15.87;;
12719;SDS011;6424;48.520;11.228;2023-02-15T06:36:21;20.70;;;16.00;;
12719;SDS011;6424;48.520;11.228;2023-02-15T06:38:47;26.57;;;16.50;;
12719;SDS011;6424;48.520;11.228;2023-02-15T06:41:28;26.60;;;16.53;;
12719;SDS011;6424;48.520;11.228;2023-02-15T06:44:09;26.87;;;15.97;;
12719;SDS011;6424;48.520;11.228;2023-02-15T06:46:34;30.33;;;17.90;;
12719;SDS011;6424;48.520;11.228;2023-02-15T06:49:15;23.53;;;15.57;;
12719;SDS011;6424;48.520;11.228;2023-02-15T06:51:56;22.73;;;15.73;;
12719;SDS011;6424;48.520;11.228;2023-02-15T06:54:37;28.70;;;15.90;;
12719;SDS011;6424;48.520;11.228;2023-02-15T06:57:17;22.97;;;15.23;;
12719;SDS011;6424;48.520;11.228;2023-02-15T06:59:58;26.70;;;16.10;;
12719;SDS011;6424;48.520;11.228;2023-02-15T07:02:39;42.63;;;17.17;;
12719;SDS011;6424;48.520;11.228;2023-02-15T07:05:20;25.37;;;16.03;;
12719;SDS011;6424;48.520;11.228;2023-02-15T07:08:02;23.83;;;16.50;;
12719;SDS011;6424;48.520;11.228;2023-02-15T07:10:43;22.93;;;16.67;;
12719;SDS011;6424;48.520;11.228;2023-02-15T07:13:24;23.53;;;15.30;;
12719;SDS011;6424;48.520;11.228;2023-02-15T07:16:05;41.37;;;16.17;;
12719;SDS011;6424;48.520;11.228;2023-02-15T07:18:30;30.43;;;15.27;;
12719;SDS011;6424;48.520;11.228;2023-02-15T07:21:11;36.50;;;15.47;;
12719;SDS011;6424;48.520;11.228;2023-02-15T07:23:55;21.40;;;13.60;;
12719;SDS011;6424;48.520;11.228;2023-02-15T07:26:37;36.83;;;14.57;;
12719;SDS011;6424;48.520;11.228;2023-02-15T07:29:18;19.47;;;12.90;;
12719;SDS011;6424;48.520;11.228;2023-02-15T07:31:44;30.80;;;14.30;;
12719;SDS011;6424;48.520;11.228;2023-02-15T07:34:25;24.43;;;14.60;;
12719;SDS011;6424;48.520;11.228;2023-02-15T07:37:06;21.93;;;13.73;;
12719;SDS011;6424;48.520;11.228;2023-02-15T07:39:47;17.47;;;13.20;;
12719;SDS011;6424;48.520;11.228;2023-02-15T07:42:27;27.43;;;14.00;;
12719;SDS011;6424;48.520;11.228;2023-02-15T07:45:10;16.90;;;12.40;;
12719;SDS011;6424;48.520;11.228;2023-02-15T07:47:51;27.00;;;14.43;;
12719;SDS011;6424;48.520;11.228;2023-02-15T07:50:32;26.53;;;14.57;;
12719;SDS011;6424;48.520;11.228;2023-02-15T07:53:13;22.73;;;14.70;;
12719;SDS011;6424;48.520;11.228;2023-02-15T07:55:54;21.87;;;14.20;;
12719;SDS011;6424;48.520;11.228;2023-02-15T07:58:38;21.13;;;13.73;;
12719;SDS011;6424;48.520;11.228;2023-02-15T08:01:31;17.43;;;13.07;;
12719;SDS011;6424;48.520;11.228;2023-02-15T08:04:15;19.93;;;15.10;;
12719;SDS011;6424;48.520;11.228;2023-02-15T08:06:56;27.10;;;17.50;;
12719;SDS011;6424;48.520;11.228;2023-02-15T08:09:37;32.13;;;22.80;;
12719;SDS011;6424;48.520;11.228;2023-02-15T08:12:18;29.60;;;16.63;;
12719;SDS011;6424;48.520;11.228;2023-02-15T08:14:59;33.53;;;15.60;;
12719;SDS011;6424;48.520;11.228;2023-02-15T08:17:40;21.57;;;15.27;;
12719;SDS011;6424;48.520;11.228;2023-02-15T08:20:20;26.63;;;17.17;;
12719;SDS011;6424;48.520;11.228;2023-02-15T08:23:02;29.63;;;17.00;;
12719;SDS011;6424;48.520;11.228;2023-02-15T08:25:42;19.00;;;14.13;;
12719;SDS011;6424;48.520;11.228;2023-02-15T08:28:23;23.53;;;16.40;;
12719;SDS011;6424;48.520;11.228;2023-02-15T08:31:08;26.30;;;19.50;;
12719;SDS011;6424;48.520;11.228;2023-02-15T08:33:51;25.40;;;16.63;;
12719;SDS011;6424;48.520;11.228;2023-02-15T08:36:33;22.63;;;16.30;;
12719;SDS011;6424;48.520;11.228;2023-02-15T08:39:14;24.97;;;16.17;;
12719;SDS011;6424;48.520;11.228;2023-02-15T08:41:55;20.37;;;15.33;;
12719;SDS011;6424;48.520;11.228;2023-02-15T08:44:36;21.23;;;14.57;;
12719;SDS011;6424;48.520;11.228;2023-02-15T08:47:17;21.03;;;15.07;;
12719;SDS011;6424;48.520;11.228;2023-02-15T08:49:58;19.50;;;14.70;;
12719;SDS011;6424;48.520;11.228;2023-02-15T08:52:23;20.07;;;15.60;;
12719;SDS011;6424;48.520;11.228;2023-02-15T08:55:04;21.93;;;17.17;;
12719;SDS011;6424;48.520;11.228;2023-02-15T08:57:30;19.47;;;14.77;;
12719;SDS011;6424;48.520;11.228;2023-02-15T09:00:11;29.50;;;18.63;;
12719;SDS011;6424;48.520;11.228;2023-02-15T09:02:52;18.43;;;14.73;;
12719;SDS011;6424;48.520;11.228;2023-02-15T09:05:33;28.87;;;17.83;;
12719;SDS011;6424;48.520;11.228;2023-02-15T09:08:14;26.27;;;16.80;;
12719;SDS011;6424;48.520;11.228;2023-02-15T09:11:03;26.20;;;19.07;;
12719;SDS011;6424;48.520;11.228;2023-02-15T09:13:56;25.93;;;18.23;;
12719;SDS011;6424;48.520;11.228;2023-02-15T09:16:41;22.00;;;16.33;;
12719;SDS011;6424;48.520;11.228;2023-02-15T09:19:28;20.40;;;13.97;;
12719;SDS011;6424;48.520;11.228;2023-02-15T09:22:09;22.20;;;16.53;;
12719;SDS011;6424;48.520;11.228;2023-02-15T09:24:50;19.00;;;15.37;;
12719;SDS011;6424;48.520;11.228;2023-02-15T09:27:30;19.37;;;14.90;;
12719;SDS011;6424;48.520;11.228;2023-02-15T09:30:11;21.73;;;15.77;;
12719;SDS011;6424;48.520;11.228;2023-02-15T09:32:38;22.00;;;16.50;;
12719;SDS011;6424;48.520;11.228;2023-02-15T09:35:18;19.33;;;15.47;;
12719;SDS011;6424;48.520;11.228;2023-02-15T09:37:59;18.60;;;15.23;;
12719;SDS011;6424;48.520;11.228;2023-02-15T09:40:41;18.67;;;15.00;;
12719;SDS011;6424;48.520;11.228;2023-02-15T09:43:33;21.37;;;14.70;;
12719;SDS011;6424;48.520;11.228;2023-02-15T09:49:19;20.03;;;15.30;;
12719;SDS011;6424;48.520;11.228;2023-02-15T09:52:22;19.53;;;14.53;;
12719;SDS011;6424;48.520;11.228;2023-02-15T10:16:25;16.10;;;13.03;;
12719;SDS011;6424;48.520;11.228;2023-02-15T10:27:45;18.30;;;14.37;;
12719;SDS011;6424;48.520;11.228;2023-02-15T10:30:31;17.20;;;13.90;;
12719;SDS011;6424;48.520;11.228;2023-02-15T10:42:20;17.33;;;13.67;;
12719;SDS011;6424;48.520;11.228;2023-02-15T10:51:08;19.07;;;14.50;;
12719;SDS011;6424;48.520;11.228;2023-02-15T11:08:36;17.37;;;14.60;;
12719;SDS011;6424;48.520;11.228;2023-02-15T11:11:24;16.70;;;14.43;;
12719;SDS011;6424;48.520;11.228;2023-02-15T11:14:12;16.83;;;13.63;;
12719;SDS011;6424;48.520;11.228;2023-02-15T11:16:56;18.50;;;14.33;;
12719;SDS011;6424;48.520;11.228;2023-02-15T11:22:50;18.30;;;14.43;;
12719;SDS011;6424;48.520;11.228;2023-02-15T11:25:33;16.67;;;13.70;;
12719;SDS011;6424;48.520;11.228;2023-02-15T11:28:27;18.07;;;14.73;;
12719;SDS011;6424;48.520;11.228;2023-02-15T11:31:20;18.53;;;14.57;;
12719;SDS011;6424;48.520;11.228;2023-02-15T11:34:05;16.13;;;13.83;;
12719;SDS011;6424;48.520;11.228;2023-02-15T11:36:52;18.77;;;14.77;;
12719;SDS011;6424;48.520;11.228;2023-02-15T11:39:36;18.37;;;14.73;;
12719;SDS011;6424;48.520;11.228;2023-02-15T11:42:18;20.23;;;15.60;;
12719;SDS011;6424;48.520;11.228;2023-02-15T11:45:10;15.27;;;13.67;;
12719;SDS011;6424;48.520;11.228;2023-02-15T11:47:55;17.20;;;14.10;;
12719;SDS011;6424;48.520;11.228;2023-02-15T11:50:37;20.50;;;15.97;;
12719;SDS011;6424;48.520;11.228;2023-02-15T11:53:19;18.23;;;15.57;;
12719;SDS011;6424;48.520;11.228;2023-02-15T11:56:09;17.37;;;14.80;;
12719;SDS011;6424;48.520;11.228;2023-02-15T11:59:00;19.20;;;15.27;;
12719;SDS011;6424;48.520;11.228;2023-02-15T12:01:45;15.60;;;13.90;;
12719;SDS011;6424;48.520;11.228;2023-02-15T12:04:32;17.37;;;14.17;;
12719;SDS011;6424;48.520;11.228;2023-02-15T12:07:32;17.90;;;14.47;;
12719;SDS011;6424;48.520;11.228;2023-02-15T12:13:16;17.53;;;15.27;;
12719;SDS011;6424;48.520;11.228;2023-02-15T12:16:04;16.77;;;14.33;;
12719;SDS011;6424;48.520;11.228;2023-02-15T12:18:47;16.80;;;14.63;;
12719;SDS011;6424;48.520;11.228;2023-02-15T12:21:29;18.30;;;15.60;;
12719;SDS011;6424;48.520;11.228;2023-02-15T12:27:15;17.13;;;14.37;;
12719;SDS011;6424;48.520;11.228;2023-02-15T12:33:15;16.27;;;14.20;;
12719;SDS011;6424;48.520;11.228;2023-02-15T12:36:06;19.00;;;15.63;;
12719;SDS011;6424;48.520;11.228;2023-02-15T12:42:16;15.33;;;13.73;;
12719;SDS011;6424;48.520;11.228;2023-02-15T12:45:00;18.23;;;15.03;;
12719;SDS011;6424;48.520;11.228;2023-02-15T12:51:06;15.63;;;13.80;;
12719;SDS011;6424;48.520;11.228;2023-02-15T12:53:48;17.73;;;14.53;;
12719;SDS011;6424;48.520;11.228;2023-02-15T12:56:29;18.63;;;14.80;;
12719;SDS011;6424;48.520;11.228;2023-02-15T12:59:12;19.00;;;15.67;;
12719;SDS011;6424;48.520;11.228;2023-02-15T13:01:54;17.07;;;14.70;;
12719;SDS011;6424;48.520;11.228;2023-02-15T13:04:36;16.00;;;14.27;;
12719;SDS011;6424;48.520;11.228;2023-02-15T13:07:16;18.37;;;14.90;;
12719;SDS011;6424;48.520;11.228;2023-02-15T13:09:57;19.10;;;15.57;;
12719;SDS011;6424;48.520;11.228;2023-02-15T13:12:39;17.93;;;15.10;;
12719;SDS011;6424;48.520;11.228;2023-02-15T13:15:28;18.10;;;14.67;;
12719;SDS011;6424;48.520;11.228;2023-02-15T13:18:12;18.17;;;15.93;;
12719;SDS011;6424;48.520;11.228;2023-02-15T13:20:58;20.93;;;16.63;;
12719;SDS011;6424;48.520;11.228;2023-02-15T13:23:47;20.80;;;15.87;;
12719;SDS011;6424;48.520;11.228;2023-02-15T13:26:50;19.80;;;15.73;;
12719;SDS011;6424;48.520;11.228;2023-02-15T13:29:33;18.43;;;15.50;;
12719;SDS011;6424;48.520;11.228;2023-02-15T13:35:18;21.40;;;18.20;;
12719;SDS011;6424;48.520;11.228;2023-02-15T13:38:05;27.10;;;21.50;;
12719;SDS011;6424;48.520;11.228;2023-02-15T13:40:55;21.07;;;17.93;;
12719;SDS011;6424;48.520;11.228;2023-02-15T13:46:36;20.03;;;17.00;;
12719;SDS011;6424;48.520;11.228;2023-02-15T13:52:24;18.80;;;16.80;;
12719;SDS011;6424;48.520;11.228;2023-02-15T13:55:31;21.30;;;18.60;;
12719;SDS011;6424;48.520;11.228;2023-02-15T14:01:13;18.17;;;15.77;;
12719;SDS011;6424;48.520;11.228;2023-02-15T14:07:47;20.80;;;16.17;;
12719;SDS011;6424;48.520;11.228;2023-02-15T14:22:31;20.40;;;16.47;;
12719;SDS011;6424;48.520;11.228;2023-02-15T14:25:29;18.47;;;16.13;;
12719;SDS011;6424;48.520;11.228;2023-02-15T14:28:27;21.43;;;16.13;;
12719;SDS011;6424;48.520;11.228;2023-02-15T14:31:12;20.50;;;16.73;;
12719;SDS011;6424;48.520;11.228;2023-02-15T14:33:55;18.47;;;16.27;;
12719;SDS011;6424;48.520;11.228;2023-02-15T14:36:37;19.20;;;16.00;;
12719;SDS011;6424;48.520;11.228;2023-02-15T14:45:28;20.90;;;17.10;;
12719;SDS011;6424;48.520;11.228;2023-02-15T14:48:48;23.03;;;17.63;;
12719;SDS011;6424;48.520;11.228;2023-02-15T15:02:46;18.40;;;16.17;;
12719;SDS011;6424;48.520;11.228;2023-02-15T15:05:46;20.13;;;17.27;;
12719;SDS011;6424;48.520;11.228;2023-02-15T15:08:34;20.07;;;16.67;;
12719;SDS011;6424;48.520;11.228;2023-02-15T15:14:08;22.93;;;17.33;;
12719;SDS011;6424;48.520;11.228;2023-02-15T15:16:49;20.07;;;17.03;;
12719;SDS011;6424;48.520;11.228;2023-02-15T15:22:19;25.80;;;21.23;;
12719;SDS011;6424;48.520;11.228;2023-02-15T15:28:29;25.13;;;19.40;;
12719;SDS011;6424;48.520;11.228;2023-02-15T15:31:18;21.97;;;19.33;;
12719;SDS011;6424;48.520;11.228;2023-02-15T15:34:09;24.87;;;21.10;;
12719;SDS011;6424;48.520;11.228;2023-02-15T15:37:02;27.13;;;21.70;;
12719;SDS011;6424;48.520;11.228;2023-02-15T15:43:19;28.13;;;21.90;;
12719;SDS011;6424;48.520;11.228;2023-02-15T15:46:32;29.63;;;22.93;;
12719;SDS011;6424;48.520;11.228;2023-02-15T15:49:38;29.23;;;22.17;;
12719;SDS011;6424;48.520;11.228;2023-02-15T15:52:20;29.23;;;22.93;;
12719;SDS011;6424;48.520;11.228;2023-02-15T15:54:51;30.83;;;22.20;;
12719;SDS011;6424;48.520;11.228;2023-02-15T15:57:39;30.03;;;23.03;;
12719;SDS011;6424;48.520;11.228;2023-02-15T16:00:36;30.90;;;23.40;;
12719;SDS011;6424;48.520;11.228;2023-02-15T16:03:25;31.57;;;24.03;;
12719;SDS011;6424;48.520;11.228;2023-02-15T16:06:11;30.87;;;23.97;;
12719;SDS011;6424;48.520;11.228;2023-02-15T16:08:53;30.30;;;24.33;;
12719;SDS011;6424;48.520;11.228;2023-02-15T16:11:34;35.10;;;25.63;;
12719;SDS011;6424;48.520;11.228;2023-02-15T16:14:32;33.53;;;25.00;;
12719;SDS011;6424;48.520;11.228;2023-02-15T16:17:02;33.73;;;25.13;;
12719;SDS011;6424;48.520;11.228;2023-02-15T16:19:38;35.20;;;25.60;;
12719;SDS011;6424;48.520;11.228;2023-02-15T16:22:21;35.30;;;25.93;;
12719;SDS011;6424;48.520;11.228;2023-02-15T16:28:11;36.10;;;27.03;;
12719;SDS011;6424;48.520;11.228;2023-02-15T16:31:04;33.67;;;24.33;;
12719;SDS011;6424;48.520;11.228;2023-02-15T16:34:07;31.40;;;23.93;;
12719;SDS011;6424;48.520;11.228;2023-02-15T16:37:31;31.13;;;23.73;;
12719;SDS011;6424;48.520;11.228;2023-02-15T16:43:04;33.63;;;24.57;;
12719;SDS011;6424;48.520;11.228;2023-02-15T16:45:32;33.30;;;24.67;;
12719;SDS011;6424;48.520;11.228;2023-02-15T16:48:04;31.50;;;23.63;;
12719;SDS011;6424;48.520;11.228;2023-02-15T16:50:51;34.17;;;24.57;;
12719;SDS011;6424;48.520;11.228;2023-02-15T16:53:35;34.17;;;24.63;;
12719;SDS011;6424;48.520;11.228;2023-02-15T16:56:18;34.33;;;25.93;;
12719;SDS011;6424;48.520;11.228;2023-02-15T16:59:03;36.73;;;26.40;;
12719;SDS011;6424;48.520;11.228;2023-02-15T17:01:44;37.67;;;24.73;;
12719;SDS011;6424;48.520;11.228;2023-02-15T17:04:29;34.10;;;24.33;;
12719;SDS011;6424;48.520;11.228;2023-02-15T17:07:16;34.20;;;23.87;;
12719;SDS011;6424;48.520;11.228;2023-02-15T17:09:59;42.87;;;26.23;;
12719;SDS011;6424;48.520;11.228;2023-02-15T17:15:35;41.27;;;25.60;;
12719;SDS011;6424;48.520;11.228;2023-02-15T17:18:19;38.80;;;26.23;;
12719;SDS011;6424;48.520;11.228;2023-02-15T17:21:08;35.30;;;26.30;;
12719;SDS011;6424;48.520;11.228;2023-02-15T17:24:00;41.70;;;26.10;;
12719;SDS011;6424;48.520;11.228;2023-02-15T17:26:45;35.77;;;26.20;;
12719;SDS011;6424;48.520;11.228;2023-02-15T17:29:37;34.30;;;25.23;;
12719;SDS011;6424;48.520;11.228;2023-02-15T17:32:24;46.10;;;27.27;;
12719;SDS011;6424;48.520;11.228;2023-02-15T17:35:17;39.23;;;27.53;;
12719;SDS011;6424;48.520;11.228;2023-02-15T17:38:03;36.53;;;25.53;;
12719;SDS011;6424;48.520;11.228;2023-02-15T17:41:04;38.07;;;25.87;;
12719;SDS011;6424;48.520;11.228;2023-02-15T17:43:44;55.47;;;25.63;;
12719;SDS011;6424;48.520;11.228;2023-02-15T17:46:25;44.13;;;27.60;;
12719;SDS011;6424;48.520;11.228;2023-02-15T17:48:56;44.77;;;30.67;;
12719;SDS011;6424;48.520;11.228;2023-02-15T17:51:37;42.43;;;28.23;;
12719;SDS011;6424;48.520;11.228;2023-02-15T17:54:18;37.33;;;26.27;;
12719;SDS011;6424;48.520;11.228;2023-02-15T17:57:17;74.40;;;29.57;;
12719;SDS011;6424;48.520;11.228;2023-02-15T17:59:58;249.77;;;37.50;;
12719;SDS011;6424;48.520;11.228;2023-02-15T18:02:57;76.63;;;26.47;;
12719;SDS011;6424;48.520;11.228;2023-02-15T18:05:56;44.10;;;25.53;;
12719;SDS011;6424;48.520;11.228;2023-02-15T18:08:41;90.63;;;28.27;;
12719;SDS011;6424;48.520;11.228;2023-02-15T18:11:40;90.87;;;31.93;;
12719;SDS011;6424;48.520;11.228;2023-02-15T18:14:21;119.30;;;32.30;;
12719;SDS011;6424;48.520;11.228;2023-02-15T18:16:47;43.30;;;28.40;;
12719;SDS011;6424;48.520;11.228;2023-02-15T18:21:46;48.43;;;30.13;;
12719;SDS011;6424;48.520;11.228;2023-02-15T18:24:27;87.67;;;27.77;;
12719;SDS011;6424;48.520;11.228;2023-02-15T18:27:09;99.20;;;27.43;;
12719;SDS011;6424;48.520;11.228;2023-02-15T18:29:51;35.20;;;22.90;;
12719;SDS011;6424;48.520;11.228;2023-02-15T18:32:33;60.83;;;27.37;;
12719;SDS011;6424;48.520;11.228;2023-02-15T18:35:20;40.10;;;25.70;;
12719;SDS011;6424;48.520;11.228;2023-02-15T18:38:03;93.27;;;28.53;;
12719;SDS011;6424;48.520;11.228;2023-02-15T18:40:44;64.00;;;30.07;;
12719;SDS011;6424;48.520;11.228;2023-02-15T18:43:24;69.57;;;31.60;;
12719;SDS011;6424;48.520;11.228;2023-02-15T18:46:05;104.37;;;47.50;;
12719;SDS011;6424;48.520;11.228;2023-02-15T18:48:46;86.00;;;29.70;;